Naiad — WAGB — position and weather

sailwx.info

Track history (hours):
 
Tides and Currents Weather Stations Pressure Air Temp Water Temp Dewpoint Dewpoint Depression Visibility Wind Speed Wind Dir Waves Ship Positions

Naiad

Owner: S.E. Combined Services of CA, SAN FRANCISCO, CA. More information available from US FCC via Universal Licensing System and Coast Guard Vessel Documentation Center.

Last reported at 2017-Nov-19 21:38 UTC. Time now 2017-Dec-12 02:53 UTC.
Position N 37°49' W 122°25'.
Warning: this ship's position is 22 days out of date.

Length 17 m.

Type: Passenger vessel. MMSI: 366864140.

Date/timePositionNaut miles runAvg speedWind from/ knotsBaromVisibWave heightAir tempDewpointWater temp
2017-Nov-19 21:38N 37°49' W 122°25'1 8.8
2017-Nov-19 21:30N 37°49' W 122°26'1 2.3
2017-Nov-19 21:00N 37°49' W 122°28'2 0.1
2017-Nov-18 21:58N 37°49' W 122°25'3 6.6
2017-Nov-18 21:29N 37°49' W 122°29'4 0.1
2017-Nov-17 21:00N 37°49' W 122°25'0 0.3
2017-Nov-17 20:24N 37°49' W 122°25'4 8.7
2017-Nov-17 20:00N 37°49' W 122°30'0 0.4
2017-Nov-17 19:30N 37°49' W 122°29'2 0.0
2017-Nov-15 17:48N 37°49' W 122°26'0 0.8
2017-Nov-15 17:20N 37°50' W 122°27'  
2017-Nov-12 21:47N 37°49' W 122°25'310.2
2017-Nov-12 21:28N 37°49' W 122°29'2 4.2
2017-Nov-12 20:59N 37°49' W 122°27'1 0.0
2017-Nov-11 19:56N 37°49' W 122°26'2 4.9
2017-Nov-11 19:29N 37°50' W 122°28'2 0.1
2017-Nov-10 21:34N 37°49' W 122°25'111.8
2017-Nov-10 21:28N 37°50' W 122°26'1 0.4
2017-Nov-10 19:26N 37°49' W 122°26'0 0.0
2017-Nov-09 22:00N 37°49' W 122°26'  
Track history (hours):
 
Tides and Currents Weather Stations Pressure Air Temp Water Temp Dewpoint Dewpoint Depression Visibility Wind Speed Wind Dir Waves Ship Positions

Naiad

Owner: S.E. Combined Services of CA, SAN FRANCISCO, CA. More information available from US FCC via Universal Licensing System and Coast Guard Vessel Documentation Center.

Last reported at 2017-Nov-19 21:38 UTC. Time now 2017-Dec-12 02:53 UTC.
Position N 37°49' W 122°25'.
Warning: this ship's position is 22 days out of date.

Length 17 m.

Type: Passenger vessel. MMSI: 366864140.

Date/timePositionNaut miles runAvg speedWind from/ knotsBaromVisibWave heightAir tempDewpointWater temp
2017-Nov-19 21:38N 37°49' W 122°25'1 8.8
2017-Nov-19 21:30N 37°49' W 122°26'1 2.3
2017-Nov-19 21:00N 37°49' W 122°28'2 0.1
2017-Nov-18 21:58N 37°49' W 122°25'3 6.6
2017-Nov-18 21:29N 37°49' W 122°29'4 0.1
2017-Nov-17 21:00N 37°49' W 122°25'0 0.3
2017-Nov-17 20:24N 37°49' W 122°25'4 8.7
2017-Nov-17 20:00N 37°49' W 122°30'0 0.4
2017-Nov-17 19:30N 37°49' W 122°29'2 0.0
2017-Nov-15 17:48N 37°49' W 122°26'0 0.8
2017-Nov-15 17:20N 37°50' W 122°27'  
2017-Nov-12 21:47N 37°49' W 122°25'310.2
2017-Nov-12 21:28N 37°49' W 122°29'2 4.2
2017-Nov-12 20:59N 37°49' W 122°27'1 0.0
2017-Nov-11 19:56N 37°49' W 122°26'2 4.9
2017-Nov-11 19:29N 37°50' W 122°28'2 0.1
2017-Nov-10 21:34N 37°49' W 122°25'111.8
2017-Nov-10 21:28N 37°50' W 122°26'1 0.4
2017-Nov-10 19:26N 37°49' W 122°26'0 0.0
2017-Nov-09 22:00N 37°49' W 122°26'  

Dump ship's entire track history